Time;durP1;ratioP1;P1;durP2;ratioP2;P2;SDS_P1;SDS_P2;PMS_P1;PMS_P2;Temp;Humidity;BMP_temperature;BMP_pressure;BME280_temperature;BME280_humidity;BME280_pressure;Samples;Min_cycle;Max_cycle;Signal;HPM_P1;HPM_P2
2022/10/20 00:01:02;;;;;;;;;;;19.30;93.50;;;;;;5135415;27;19942;-40
2022/10/20 00:03:28;;;;;;;;;;;19.30;93.50;;;;;;5133858;27;19907;-40
2022/10/20 00:05:54;;;;;;;;;;;19.30;93.50;;;;;;5135135;27;19907;-39
2022/10/20 00:08:20;;;;;;;;;;;19.30;93.50;;;;;;5135617;27;20331;-39
2022/10/20 00:10:52;;;;;;;;;;;19.30;93.50;;;;;;5135393;27;19912;-40
2022/10/20 00:13:17;;;;;;;;;;;19.30;93.50;;;;;;5135034;27;19907;-40
2022/10/20 00:15:50;;;;;;;;;;;19.30;93.50;;;;;;5135050;27;20267;-41
2022/10/20 00:18:15;;;;;;;;;;;19.30;93.50;;;;;;5134760;27;19920;-40
2022/10/20 00:20:41;;;;;;;;;;;19.30;93.50;;;;;;5134026;27;19908;-39
2022/10/20 00:23:06;;;;;;;;;;;19.30;93.50;;;;;;5134814;27;19908;-40
2022/10/20 00:25:32;;;;;;;;;;;19.30;93.50;;;;;;5134839;27;19922;-40
2022/10/20 00:27:57;;;;;;;;;;;19.30;93.50;;;;;;5134820;27;19907;-40
2022/10/20 00:30:23;;;;;;;;;;;19.30;93.50;;;;;;5135519;28;19915;-40
2022/10/20 00:32:48;;;;;;;;;;;19.30;93.50;;;;;;5135033;28;20002;-39
2022/10/20 00:35:14;;;;;;;;;;;19.30;93.50;;;;;;5134721;28;20373;-40
2022/10/20 00:37:39;;;;;;;;;;;19.30;93.50;;;;;;5134642;28;19941;-40
2022/10/20 00:40:05;;;;;;;;;;;19.30;93.50;;;;;;5134972;28;20346;-40
2022/10/20 00:42:30;;;;;;;;;;;19.30;93.50;;;;;;5134923;28;19915;-39
2022/10/20 00:44:57;;;;;;;;;;;19.30;93.50;;;;;;5133767;28;19908;-39
2022/10/20 00:47:25;;;;;;;;;;;19.30;93.60;;;;;;5134645;28;20320;-39
2022/10/20 00:49:51;;;;;;;;;;;19.30;93.50;;;;;;5134867;28;19954;-40
2022/10/20 00:52:19;;;;;;;;;;;19.30;93.50;;;;;;5134615;28;19914;-40
2022/10/20 00:54:45;;;;;;;;;;;19.30;93.60;;;;;;5134842;28;19912;-40
2022/10/20 00:57:11;;;;;;;;;;;19.30;93.50;;;;;;5116496;28;19907;-39
2022/10/20 00:59:38;;;;;;;;;;;19.30;93.50;;;;;;5118808;27;20396;-39
2022/10/20 01:02:05;;;;;;;;;;;19.30;93.50;;;;;;5138792;27;19908;-40
2022/10/20 01:04:32;;;;;;;;;;;19.30;93.50;;;;;;5139169;27;20295;-39
2022/10/20 01:06:57;;;;;;;;;;;19.30;93.50;;;;;;5138777;27;19919;-39
2022/10/20 01:09:23;;;;;;;;;;;19.20;93.50;;;;;;5138412;27;19907;-39
2022/10/20 01:12:12;;;;;;;;;;;19.30;93.50;;;;;;5138411;27;19911;-40
2022/10/20 01:14:41;;;;;;;;;;;19.20;93.50;;;;;;5127251;27;20262;-39
2022/10/20 01:17:25;;;;;;;;;;;19.30;93.50;;;;;;5138585;27;19907;-39
2022/10/20 01:20:12;;;;;;;;;;;19.30;93.50;;;;;;5138591;27;20378;-39
2022/10/20 01:22:37;;;;;;;;;;;19.30;93.50;;;;;;5138226;27;19912;-40
2022/10/20 01:25:12;;;;;;;;;;;19.20;93.50;;;;;;5138425;27;20412;-40
2022/10/20 01:27:39;;;;;;;;;;;19.30;93.50;;;;;;5138406;27;19907;-40
2022/10/20 01:30:08;;;;;;;;;;;19.20;93.50;;;;;;5138323;27;20383;-39
2022/10/20 01:32:39;;;;;;;;;;;19.20;93.50;;;;;;5133022;27;19911;-40
2022/10/20 01:35:10;;;;;;;;;;;19.20;93.50;;;;;;5117490;28;19955;-40
2022/10/20 01:37:39;;;;;;;;;;;19.20;93.60;;;;;;5117672;28;19937;-39
2022/10/20 01:40:11;;;;;;;;;;;19.20;93.60;;;;;;5117543;28;20380;-39
2022/10/20 01:42:38;;;;;;;;;;;19.20;93.90;;;;;;5116621;28;19980;-39
2022/10/20 01:45:05;;;;;;;;;;;19.20;93.70;;;;;;5113657;28;19914;-39
2022/10/20 01:47:31;;;;;;;;;;;19.20;93.70;;;;;;5117062;28;19914;-39
2022/10/20 01:49:56;;;;;;;;;;;19.20;93.70;;;;;;5117323;28;19911;-40
2022/10/20 01:52:22;;;;;;;;;;;19.20;93.80;;;;;;5117470;28;19908;-40
2022/10/20 01:54:48;;;;;;;;;;;19.20;93.70;;;;;;5115538;28;19908;-40
2022/10/20 01:57:17;;;;;;;;;;;19.20;93.80;;;;;;5118428;27;19907;-40
2022/10/20 01:59:54;;;;;;;;;;;19.20;93.80;;;;;;5119793;27;19908;-39
2022/10/20 02:02:38;;;;;;;;;;;19.20;93.80;;;;;;5114409;28;19915;-40
2022/10/20 02:05:16;;;;;;;;;;;19.20;93.70;;;;;;5116868;27;19955;-40
2022/10/20 02:07:42;;;;;;;;;;;19.20;93.80;;;;;;5130241;27;19923;-40
2022/10/20 02:10:23;;;;;;;;;;;19.20;93.90;;;;;;5136722;27;19914;-39
2022/10/20 02:12:51;;;;;;;;;;;19.20;94.10;;;;;;5118234;27;21566;-40
2022/10/20 02:15:20;;;;;;;;;;;19.20;93.90;;;;;;5137854;27;19961;-40
2022/10/20 02:17:47;;;;;;;;;;;19.20;93.90;;;;;;5116763;27;19920;-40
2022/10/20 02:20:14;;;;;;;;;;;19.20;93.80;;;;;;5116432;28;19926;-39
2022/10/20 02:22:39;;;;;;;;;;;19.20;93.80;;;;;;5116798;28;19956;-43
2022/10/20 02:25:05;;;;;;;;;;;19.20;93.80;;;;;;5116465;28;20003;-40
2022/10/20 02:27:36;;;;;;;;;;;19.20;93.90;;;;;;5116346;28;19912;-39
2022/10/20 02:30:04;;;;;;;;;;;19.20;93.90;;;;;;5116335;28;19973;-39
2022/10/20 02:32:31;;;;;;;;;;;19.20;93.90;;;;;;5116589;28;20297;-40
2022/10/20 02:34:56;;;;;;;;;;;19.20;93.90;;;;;;5116192;28;20467;-39
2022/10/20 02:37:22;;;;;;;;;;;19.20;93.90;;;;;;5116093;28;19947;-40
2022/10/20 02:39:47;;;;;;;;;;;19.10;93.90;;;;;;5116916;28;19957;-40
2022/10/20 02:42:15;;;;;;;;;;;19.20;93.90;;;;;;5113943;28;19959;-39
2022/10/20 02:44:41;;;;;;;;;;;19.20;93.90;;;;;;5116584;28;19915;-40
2022/10/20 02:47:06;;;;;;;;;;;19.10;93.90;;;;;;5116011;28;20282;-40
2022/10/20 02:49:32;;;;;;;;;;;19.20;94.00;;;;;;5115863;28;19994;-39
2022/10/20 02:51:57;;;;;;;;;;;19.10;93.90;;;;;;5115977;28;19907;-40
2022/10/20 02:54:23;;;;;;;;;;;19.10;94.00;;;;;;5115689;28;19991;-40
2022/10/20 02:56:48;;;;;;;;;;;19.10;93.90;;;;;;5115856;28;20007;-40
2022/10/20 02:59:15;;;;;;;;;;;19.10;93.90;;;;;;5114188;28;20418;-39
2022/10/20 03:01:41;;;;;;;;;;;19.20;93.90;;;;;;5115649;28;19907;-39
2022/10/20 03:04:07;;;;;;;;;;;19.20;93.90;;;;;;5115718;28;20271;-39
2022/10/20 03:06:32;;;;;;;;;;;19.20;93.90;;;;;;5115591;28;19958;-39
2022/10/20 03:08:58;;;;;;;;;;;19.20;93.90;;;;;;5115999;28;19912;-40
2022/10/20 03:11:23;;;;;;;;;;;19.20;94.20;;;;;;5114922;28;19912;-39
2022/10/20 03:13:49;;;;;;;;;;;19.20;93.90;;;;;;5113309;28;19912;-40
2022/10/20 03:16:14;;;;;;;;;;;19.20;93.90;;;;;;5095604;28;20281;-39
2022/10/20 03:18:39;;;;;;;;;;;19.20;93.90;;;;;;5096133;28;19912;-39
2022/10/20 03:21:05;;;;;;;;;;;19.20;93.90;;;;;;5115624;28;19907;-39
2022/10/20 03:23:30;;;;;;;;;;;19.20;93.90;;;;;;5115059;28;20342;-40
2022/10/20 03:26:03;;;;;;;;;;;19.20;94.00;;;;;;5120744;27;19908;-39
2022/10/20 03:28:29;;;;;;;;;;;19.20;93.90;;;;;;5121663;27;20338;-40
2022/10/20 03:30:54;;;;;;;;;;;19.20;94.00;;;;;;5115013;28;19911;-48
2022/10/20 03:33:20;;;;;;;;;;;19.20;94.00;;;;;;5129358;27;19968;-41
2022/10/20 03:35:45;;;;;;;;;;;19.10;93.90;;;;;;5114868;28;19903;-40
2022/10/20 03:38:10;;;;;;;;;;;19.20;94.00;;;;;;5113474;28;19916;-40
2022/10/20 03:40:36;;;;;;;;;;;19.20;93.90;;;;;;5115522;28;19912;-40
2022/10/20 03:43:01;;;;;;;;;;;19.20;93.90;;;;;;5115328;28;19919;-39
2022/10/20 03:45:27;;;;;;;;;;;19.10;93.90;;;;;;5114652;28;19915;-40
2022/10/20 03:47:52;;;;;;;;;;;19.10;93.90;;;;;;5115160;28;20044;-39
2022/10/20 03:50:18;;;;;;;;;;;19.10;93.90;;;;;;5114767;28;19990;-40
2022/10/20 03:52:45;;;;;;;;;;;19.10;94.00;;;;;;5114566;28;20262;-40
2022/10/20 03:55:11;;;;;;;;;;;19.10;94.00;;;;;;5112890;28;19914;-41
2022/10/20 03:57:36;;;;;;;;;;;19.10;94.00;;;;;;5112942;28;19916;-39
2022/10/20 04:00:02;;;;;;;;;;;19.10;94.00;;;;;;5112773;28;19934;-40
2022/10/20 04:02:27;;;;;;;;;;;19.10;94.00;;;;;;5112819;28;20262;-45
2022/10/20 04:04:53;;;;;;;;;;;19.10;93.90;;;;;;5112764;28;19990;-45
2022/10/20 04:07:18;;;;;;;;;;;19.20;93.90;;;;;;5112242;28;19977;-45
2022/10/20 04:09:44;;;;;;;;;;;19.10;93.90;;;;;;5114456;28;19914;-40
2022/10/20 04:12:09;;;;;;;;;;;19.10;93.90;;;;;;5114691;28;20016;-39
2022/10/20 04:14:35;;;;;;;;;;;19.10;93.80;;;;;;5114420;28;19969;-40
2022/10/20 04:17:00;;;;;;;;;;;19.20;93.80;;;;;;5114144;28;19914;-39
2022/10/20 04:19:26;;;;;;;;;;;19.20;93.80;;;;;;5114229;28;19915;-39
2022/10/20 04:21:51;;;;;;;;;;;19.20;93.80;;;;;;5114341;28;20276;-39
2022/10/20 04:24:16;;;;;;;;;;;19.20;93.80;;;;;;5114206;28;19908;-39
2022/10/20 04:26:42;;;;;;;;;;;19.10;93.80;;;;;;5114397;28;20052;-39
2022/10/20 04:29:07;;;;;;;;;;;19.20;93.80;;;;;;5114066;28;19915;-39
2022/10/20 04:31:33;;;;;;;;;;;19.20;93.80;;;;;;5114170;28;19958;-39
2022/10/20 04:33:58;;;;;;;;;;;19.20;93.80;;;;;;5114252;28;19953;-39
2022/10/20 04:36:24;;;;;;;;;;;19.20;93.80;;;;;;5114467;28;19908;-39
2022/10/20 04:38:49;;;;;;;;;;;19.20;93.80;;;;;;5096057;28;19919;-39
2022/10/20 04:41:15;;;;;;;;;;;19.20;93.80;;;;;;5114023;28;19912;-39
2022/10/20 04:43:40;;;;;;;;;;;19.10;93.80;;;;;;5114411;28;19915;-39
2022/10/20 04:46:06;;;;;;;;;;;19.20;93.80;;;;;;5113891;28;19957;-40
2022/10/20 04:48:31;;;;;;;;;;;19.20;93.80;;;;;;5113922;28;19908;-39
2022/10/20 04:51:04;;;;;;;;;;;19.20;93.80;;;;;;5114202;28;20328;-39
2022/10/20 04:53:29;;;;;;;;;;;19.20;93.80;;;;;;5113575;28;19912;-39
2022/10/20 04:55:55;;;;;;;;;;;19.20;93.80;;;;;;5114057;28;19908;-39
2022/10/20 04:58:21;;;;;;;;;;;19.10;93.80;;;;;;5095461;28;19920;-39
2022/10/20 05:00:47;;;;;;;;;;;19.10;93.80;;;;;;5114135;28;19908;-39
2022/10/20 05:03:12;;;;;;;;;;;19.10;93.80;;;;;;5113643;28;20255;-39
2022/10/20 05:05:38;;;;;;;;;;;19.10;93.80;;;;;;5113975;28;20280;-39
2022/10/20 05:08:03;;;;;;;;;;;19.20;93.80;;;;;;5113868;28;19919;-39
2022/10/20 05:10:29;;;;;;;;;;;19.10;93.80;;;;;;5113650;28;20275;-39
2022/10/20 05:12:54;;;;;;;;;;;19.10;93.80;;;;;;5113823;28;20271;-40
2022/10/20 05:15:19;;;;;;;;;;;19.10;93.80;;;;;;5113510;28;19908;-40
2022/10/20 05:17:45;;;;;;;;;;;19.10;93.80;;;;;;5113367;28;19916;-39
2022/10/20 05:20:10;;;;;;;;;;;19.20;93.80;;;;;;5095655;28;19915;-39
2022/10/20 05:22:36;;;;;;;;;;;19.20;93.80;;;;;;5113797;28;19933;-39
2022/10/20 05:25:01;;;;;;;;;;;19.10;93.80;;;;;;5113614;28;19908;-40
2022/10/20 05:27:27;;;;;;;;;;;19.10;93.80;;;;;;5113258;28;19951;-40
2022/10/20 05:29:53;;;;;;;;;;;19.10;93.80;;;;;;5113397;28;19908;-39
2022/10/20 05:32:18;;;;;;;;;;;19.10;94.10;;;;;;5113770;28;19928;-39
2022/10/20 05:34:44;;;;;;;;;;;19.10;93.80;;;;;;5113759;28;20017;-39
2022/10/20 05:37:09;;;;;;;;;;;19.20;93.90;;;;;;5113194;28;19912;-40
2022/10/20 05:39:34;;;;;;;;;;;19.10;93.90;;;;;;5113325;28;19915;-39
2022/10/20 05:42:00;;;;;;;;;;;19.10;93.80;;;;;;5113354;28;20250;-40
2022/10/20 05:44:25;;;;;;;;;;;19.10;93.80;;;;;;5113274;28;19908;-40
2022/10/20 05:46:51;;;;;;;;;;;19.10;93.80;;;;;;5116220;28;20380;-40
2022/10/20 05:49:16;;;;;;;;;;;19.10;93.90;;;;;;5116819;28;19964;-39
2022/10/20 05:51:42;;;;;;;;;;;19.10;93.90;;;;;;5116924;28;19908;-39
2022/10/20 05:54:09;;;;;;;;;;;19.10;93.80;;;;;;5117189;28;19991;-39
2022/10/20 05:56:35;;;;;;;;;;;19.10;93.80;;;;;;5098706;28;20233;-40
2022/10/20 05:59:00;;;;;;;;;;;19.10;93.80;;;;;;5116748;28;20018;-40
2022/10/20 06:01:27;;;;;;;;;;;19.10;93.80;;;;;;5116544;28;19908;-39
2022/10/20 06:03:56;;;;;;;;;;;19.10;93.90;;;;;;5116467;28;19908;-39
2022/10/20 06:06:23;;;;;;;;;;;19.10;93.90;;;;;;5115422;27;19954;-41
2022/10/20 06:08:49;;;;;;;;;;;19.10;94.00;;;;;;5119381;27;19907;-41
2022/10/20 06:11:15;;;;;;;;;;;19.20;94.00;;;;;;5123088;27;19908;-41
2022/10/20 06:13:41;;;;;;;;;;;19.20;94.00;;;;;;5116716;28;19915;-41
2022/10/20 06:16:08;;;;;;;;;;;19.30;94.10;;;;;;5135480;27;19908;-41
2022/10/20 06:18:34;;;;;;;;;;;19.30;94.20;;;;;;5118598;27;20381;-41
2022/10/20 06:21:08;;;;;;;;;;;19.30;94.20;;;;;;5137192;27;19912;-41
2022/10/20 06:23:34;;;;;;;;;;;19.30;94.20;;;;;;5127240;27;19908;-41
2022/10/20 06:26:03;;;;;;;;;;;19.30;94.20;;;;;;5116410;28;19919;-41
2022/10/20 06:28:30;;;;;;;;;;;19.30;94.20;;;;;;5097893;28;19965;-41
2022/10/20 06:30:55;;;;;;;;;;;19.30;94.20;;;;;;5116388;28;19953;-41
2022/10/20 06:33:21;;;;;;;;;;;19.30;94.20;;;;;;5116094;28;19908;-41
2022/10/20 06:35:46;;;;;;;;;;;19.40;94.30;;;;;;5116355;28;19907;-40
2022/10/20 06:38:12;;;;;;;;;;;19.40;94.20;;;;;;5116106;28;20392;-40
2022/10/20 06:40:38;;;;;;;;;;;19.40;94.30;;;;;;5125778;27;19908;-37
2022/10/20 06:43:03;;;;;;;;;;;19.30;94.20;;;;;;5136289;27;19933;-38
2022/10/20 06:45:29;;;;;;;;;;;19.40;94.30;;;;;;5135925;27;19912;-40
2022/10/20 06:47:54;;;;;;;;;;;19.40;94.20;;;;;;5135996;27;19960;-40
2022/10/20 06:50:20;;;;;;;;;;;19.40;94.20;;;;;;5136658;27;19908;-40
2022/10/20 06:52:45;;;;;;;;;;;19.40;94.20;;;;;;5136132;27;20319;-40
2022/10/20 06:55:11;;;;;;;;;;;19.40;94.20;;;;;;5135877;27;19939;-40
2022/10/20 06:57:36;;;;;;;;;;;19.40;94.30;;;;;;5135640;27;19915;-39
2022/10/20 07:00:03;;;;;;;;;;;19.40;94.30;;;;;;5136232;27;20277;-39
2022/10/20 07:02:28;;;;;;;;;;;19.40;94.20;;;;;;5136077;27;19908;-40
2022/10/20 07:04:54;;;;;;;;;;;19.50;94.20;;;;;;5135452;27;20251;-39
2022/10/20 07:07:19;;;;;;;;;;;19.50;94.10;;;;;;5136099;27;20361;-38
2022/10/20 07:09:45;;;;;;;;;;;19.50;94.10;;;;;;5136178;27;20029;-39
2022/10/20 07:12:10;;;;;;;;;;;19.50;94.10;;;;;;5135915;27;19947;-39
2022/10/20 07:14:36;;;;;;;;;;;19.50;94.10;;;;;;5127483;27;19912;-39
2022/10/20 07:17:02;;;;;;;;;;;19.50;94.10;;;;;;5115588;28;19915;-39
2022/10/20 07:19:27;;;;;;;;;;;19.60;94.10;;;;;;5097089;28;20267;-44
2022/10/20 07:21:53;;;;;;;;;;;19.60;94.10;;;;;;5114961;28;19918;-48
2022/10/20 07:24:18;;;;;;;;;;;19.60;94.10;;;;;;5115641;28;19908;-44
2022/10/20 07:26:44;;;;;;;;;;;19.60;94.10;;;;;;5115556;28;20311;-44
2022/10/20 07:29:10;;;;;;;;;;;19.60;94.10;;;;;;5114837;28;19912;-46
2022/10/20 07:31:37;;;;;;;;;;;19.60;94.10;;;;;;5115559;28;19908;-46
2022/10/20 07:34:03;;;;;;;;;;;19.60;94.10;;;;;;5115250;28;20322;-45
2022/10/20 07:36:30;;;;;;;;;;;19.60;94.10;;;;;;5114734;28;19907;-46
2022/10/20 07:38:56;;;;;;;;;;;19.60;94.10;;;;;;5115074;28;20251;-45
2022/10/20 07:41:22;;;;;;;;;;;19.60;94.10;;;;;;5114594;28;20393;-46
2022/10/20 07:43:47;;;;;;;;;;;19.60;94.10;;;;;;5114530;28;19951;-44
2022/10/20 07:46:13;;;;;;;;;;;19.60;94.10;;;;;;5114559;28;19907;-44
2022/10/20 07:48:39;;;;;;;;;;;19.60;94.10;;;;;;5096111;28;19908;-45
2022/10/20 07:51:29;;;;;;;;;;;19.60;94.10;;;;;;5114212;28;19907;-48
2022/10/20 07:54:00;;;;;;;;;;;19.70;94.10;;;;;;5114480;28;19908;-45
2022/10/20 07:56:28;;;;;;;;;;;19.70;94.10;;;;;;5114656;28;19930;-45
2022/10/20 07:58:54;;;;;;;;;;;19.70;94.10;;;;;;5114349;28;20014;-44
2022/10/20 08:01:19;;;;;;;;;;;19.70;94.20;;;;;;5114561;28;19912;-48
2022/10/20 08:03:45;;;;;;;;;;;19.70;94.10;;;;;;5114686;28;20270;-45
2022/10/20 08:06:10;;;;;;;;;;;19.70;94.00;;;;;;5114438;28;19961;-47
2022/10/20 08:08:36;;;;;;;;;;;19.70;94.00;;;;;;5114318;28;20072;-45
2022/10/20 08:11:02;;;;;;;;;;;19.70;94.00;;;;;;5114622;28;19908;-48
2022/10/20 08:13:28;;;;;;;;;;;19.70;94.10;;;;;;5114608;28;19908;-44
2022/10/20 08:15:53;;;;;;;;;;;19.70;94.00;;;;;;5134077;27;19950;-45
2022/10/20 08:18:19;;;;;;;;;;;19.70;94.00;;;;;;5133557;27;20007;-48
2022/10/20 08:20:45;;;;;;;;;;;19.70;94.00;;;;;;5134879;27;19907;-45
2022/10/20 08:23:11;;;;;;;;;;;19.70;94.00;;;;;;5134583;27;19908;-44
2022/10/20 08:25:36;;;;;;;;;;;19.70;94.00;;;;;;5134800;27;20267;-45
2022/10/20 08:28:02;;;;;;;;;;;19.70;94.00;;;;;;5134995;27;20256;-46
2022/10/20 08:30:27;;;;;;;;;;;19.70;94.00;;;;;;5134361;27;19908;-46
2022/10/20 08:32:53;;;;;;;;;;;19.70;94.00;;;;;;5134992;28;19915;-51
2022/10/20 08:35:19;;;;;;;;;;;19.80;94.00;;;;;;5134466;28;19907;-48
2022/10/20 08:37:44;;;;;;;;;;;19.80;94.00;;;;;;5134303;28;20289;-47
2022/10/20 08:40:18;;;;;;;;;;;19.70;93.90;;;;;;5134764;28;19947;-47
2022/10/20 08:42:46;;;;;;;;;;;19.70;93.90;;;;;;5134670;28;20006;-47
2022/10/20 08:45:16;;;;;;;;;;;19.70;93.90;;;;;;5134388;28;20362;-50
2022/10/20 08:47:42;;;;;;;;;;;19.80;93.90;;;;;;5134430;28;19930;-44
2022/10/20 08:50:10;;;;;;;;;;;19.80;93.90;;;;;;5134744;28;19907;-46
2022/10/20 08:52:35;;;;;;;;;;;19.80;93.90;;;;;;5135017;28;19961;-44
2022/10/20 08:55:03;;;;;;;;;;;19.80;93.90;;;;;;5134564;28;19915;-48
2022/10/20 08:57:30;;;;;;;;;;;19.80;93.90;;;;;;5134077;28;19907;-47
2022/10/20 09:00:11;;;;;;;;;;;19.80;93.90;;;;;;5134454;28;19912;-52
2022/10/20 09:02:37;;;;;;;;;;;19.80;93.90;;;;;;5134076;28;20342;-49
2022/10/20 09:05:03;;;;;;;;;;;19.70;93.90;;;;;;5113168;28;19918;-50
2022/10/20 09:07:33;;;;;;;;;;;19.70;93.90;;;;;;5113800;28;19924;-49
2022/10/20 09:10:25;;;;;;;;;;;19.80;93.90;;;;;;5113909;28;19911;-48
2022/10/20 09:12:51;;;;;;;;;;;19.80;93.80;;;;;;5104588;28;19934;-47
2022/10/20 09:15:17;;;;;;;;;;;19.80;93.80;;;;;;5128120;28;20384;-49
2022/10/20 09:17:44;;;;;;;;;;;19.80;93.70;;;;;;5117996;28;19926;-47
2022/10/20 09:20:14;;;;;;;;;;;19.80;93.70;;;;;;5115372;28;19911;-47
2022/10/20 09:22:40;;;;;;;;;;;19.80;93.70;;;;;;5116466;28;20374;-46
2022/10/20 09:25:11;;;;;;;;;;;19.80;93.70;;;;;;5113605;28;19947;-46
2022/10/20 09:27:40;;;;;;;;;;;19.80;93.70;;;;;;5114453;28;19912;-50
2022/10/20 09:30:13;;;;;;;;;;;19.80;93.70;;;;;;5116080;28;20010;-50
2022/10/20 09:32:39;;;;;;;;;;;19.80;93.70;;;;;;5116411;28;19912;-50
2022/10/20 09:35:16;;;;;;;;;;;19.80;93.90;;;;;;5115888;28;20339;-52
2022/10/20 09:37:49;;;;;;;;;;;19.80;93.60;;;;;;5116130;28;19927;-50
2022/10/20 09:40:16;;;;;;;;;;;19.80;93.70;;;;;;5115018;28;19912;-47
2022/10/20 09:42:45;;;;;;;;;;;19.80;93.70;;;;;;5114311;28;19912;-47
2022/10/20 09:45:11;;;;;;;;;;;19.80;93.70;;;;;;5097858;28;20304;-44
2022/10/20 09:47:41;;;;;;;;;;;19.80;93.70;;;;;;5117091;28;19915;-51
2022/10/20 09:50:07;;;;;;;;;;;19.80;93.70;;;;;;5116211;28;20282;-47
2022/10/20 09:52:43;;;;;;;;;;;19.80;93.60;;;;;;5115247;28;19918;-46
2022/10/20 09:55:27;;;;;;;;;;;19.80;93.60;;;;;;5116589;28;19912;-51
2022/10/20 09:57:54;;;;;;;;;;;19.80;93.70;;;;;;5116208;28;19946;-49
2022/10/20 10:00:24;;;;;;;;;;;19.80;93.70;;;;;;5117160;28;20271;-47
2022/10/20 10:03:06;;;;;;;;;;;19.80;93.70;;;;;;5115829;28;19912;-49
2022/10/20 10:05:31;;;;;;;;;;;19.90;93.70;;;;;;5097892;28;19915;-48
2022/10/20 10:07:59;;;;;;;;;;;19.90;93.60;;;;;;5115420;28;19969;-46
2022/10/20 10:10:27;;;;;;;;;;;19.90;93.50;;;;;;5115823;28;19926;-50
2022/10/20 10:12:53;;;;;;;;;;;19.90;93.50;;;;;;5111375;28;19926;-44
2022/10/20 10:15:29;;;;;;;;;;;19.90;93.50;;;;;;5113967;27;20244;-47
2022/10/20 10:17:55;;;;;;;;;;;19.90;93.60;;;;;;5113794;28;20286;-46
2022/10/20 10:20:21;;;;;;;;;;;19.90;93.60;;;;;;5098641;28;19919;-45
2022/10/20 10:22:47;;;;;;;;;;;19.90;93.60;;;;;;5096611;28;20023;-42
2022/10/20 10:25:15;;;;;;;;;;;19.90;93.60;;;;;;5096151;28;19908;-46
2022/10/20 10:27:55;;;;;;;;;;;19.90;93.50;;;;;;5095754;28;20350;-45
2022/10/20 10:30:20;;;;;;;;;;;19.90;93.50;;;;;;5096289;28;19908;-43
2022/10/20 10:32:46;;;;;;;;;;;19.90;93.50;;;;;;5094938;28;20397;-46
2022/10/20 10:35:24;;;;;;;;;;;19.90;93.50;;;;;;5096008;28;19912;-47
2022/10/20 10:37:51;;;;;;;;;;;19.90;93.60;;;;;;5095607;28;19920;-44
2022/10/20 10:40:18;;;;;;;;;;;19.80;93.50;;;;;;5095727;28;19908;-48
2022/10/20 10:42:50;;;;;;;;;;;19.90;93.50;;;;;;5095987;28;19915;-45
2022/10/20 10:45:34;;;;;;;;;;;19.90;93.50;;;;;;5095811;28;19915;-47
2022/10/20 10:48:03;;;;;;;;;;;19.90;93.50;;;;;;5094523;28;20270;-43
2022/10/20 10:50:35;;;;;;;;;;;19.90;93.40;;;;;;5095402;28;19915;-45
2022/10/20 10:53:13;;;;;;;;;;;19.80;93.40;;;;;;5095699;28;19931;-45
2022/10/20 10:55:53;;;;;;;;;;;19.90;93.40;;;;;;5095358;28;19912;-47
2022/10/20 10:58:24;;;;;;;;;;;19.90;93.40;;;;;;5095229;28;19952;-44
2022/10/20 11:00:56;;;;;;;;;;;19.90;93.40;;;;;;5095218;28;20374;-43
2022/10/20 11:03:30;;;;;;;;;;;19.90;93.40;;;;;;5095495;28;19912;-43
2022/10/20 11:06:14;;;;;;;;;;;19.90;93.30;;;;;;5095225;28;19908;-46
2022/10/20 11:08:40;;;;;;;;;;;19.80;93.40;;;;;;5095324;28;19946;-47
2022/10/20 11:11:14;;;;;;;;;;;19.80;93.40;;;;;;5095371;28;20255;-43
2022/10/20 11:13:40;;;;;;;;;;;19.90;93.40;;;;;;5096292;27;19919;-43
2022/10/20 11:16:24;;;;;;;;;;;19.90;93.30;;;;;;5135696;27;19907;-48
2022/10/20 11:18:59;;;;;;;;;;;19.80;93.30;;;;;;5135391;27;20018;-44
2022/10/20 11:21:33;;;;;;;;;;;19.80;93.30;;;;;;5135650;27;19960;-44
2022/10/20 11:23:59;;;;;;;;;;;19.90;93.40;;;;;;5136123;27;19908;-47
2022/10/20 11:26:26;;;;;;;;;;;19.80;93.30;;;;;;5135349;27;19914;-45
2022/10/20 11:28:53;;;;;;;;;;;19.80;93.20;;;;;;5135936;27;20309;-47
2022/10/20 11:31:30;;;;;;;;;;;19.80;93.20;;;;;;5117259;27;19911;-48
2022/10/20 11:34:03;;;;;;;;;;;19.80;93.10;;;;;;5135475;27;20365;-43
2022/10/20 11:36:31;;;;;;;;;;;19.90;93.30;;;;;;5135593;27;19930;-45
2022/10/20 11:38:57;;;;;;;;;;;19.80;93.20;;;;;;5135537;27;19915;-45
2022/10/20 11:41:25;;;;;;;;;;;19.80;93.20;;;;;;5135489;27;19952;-48
2022/10/20 11:44:11;;;;;;;;;;;19.90;93.30;;;;;;5135629;27;19918;-44
2022/10/20 11:46:36;;;;;;;;;;;19.80;93.20;;;;;;5134514;27;20031;-46
2022/10/20 11:49:03;;;;;;;;;;;19.80;93.20;;;;;;5135799;27;20326;-46
2022/10/20 11:51:28;;;;;;;;;;;19.80;93.20;;;;;;5135167;27;19907;-46
2022/10/20 11:53:57;;;;;;;;;;;19.80;93.20;;;;;;5135242;27;19908;-43
2022/10/20 11:56:25;;;;;;;;;;;19.80;93.10;;;;;;5134845;27;19968;-45
2022/10/20 11:58:59;;;;;;;;;;;19.80;93.10;;;;;;5134807;27;19915;-46
2022/10/20 12:01:35;;;;;;;;;;;19.80;93.20;;;;;;5134352;27;20043;-44
2022/10/20 12:04:11;;;;;;;;;;;19.80;93.20;;;;;;5128195;27;19939;-46
2022/10/20 12:06:56;;;;;;;;;;;19.80;93.10;;;;;;5107811;28;20034;-46
2022/10/20 12:09:25;;;;;;;;;;;19.80;93.10;;;;;;5069910;28;19988;-45
2022/10/20 12:12:01;;;;;;;;;;;19.80;93.10;;;;;;5111406;28;19927;-49
2022/10/20 12:14:30;;;;;;;;;;;19.80;93.10;;;;;;5110953;28;19912;-46
2022/10/20 12:16:59;;;;;;;;;;;19.80;93.10;;;;;;5113042;28;19911;-44
2022/10/20 12:19:29;;;;;;;;;;;19.80;93.20;;;;;;5108215;27;20294;-46
2022/10/20 12:21:54;;;;;;;;;;;19.80;93.20;;;;;;5121412;27;19912;-48
2022/10/20 12:24:32;;;;;;;;;;;19.80;93.20;;;;;;5114320;28;20403;-47
2022/10/20 12:27:03;;;;;;;;;;;19.80;93.20;;;;;;5111109;28;19973;-46
2022/10/20 12:29:29;;;;;;;;;;;19.80;93.20;;;;;;5113338;28;20041;-46
2022/10/20 12:32:13;;;;;;;;;;;19.80;93.20;;;;;;5094962;28;19990;-48
2022/10/20 12:34:39;;;;;;;;;;;19.80;93.30;;;;;;5113540;28;19912;-45
2022/10/20 12:37:19;;;;;;;;;;;19.80;93.30;;;;;;5110512;28;19912;-42
2022/10/20 12:39:47;;;;;;;;;;;19.80;93.30;;;;;;5111709;28;20393;-46
2022/10/20 12:42:22;;;;;;;;;;;19.80;93.30;;;;;;5092496;28;19911;-45
2022/10/20 12:44:48;;;;;;;;;;;19.80;93.30;;;;;;5095246;28;20312;-44
2022/10/20 12:47:22;;;;;;;;;;;19.90;93.30;;;;;;5111568;28;19973;-47
2022/10/20 12:49:55;;;;;;;;;;;19.80;93.30;;;;;;5112560;28;19926;-44
2022/10/20 12:52:23;;;;;;;;;;;19.90;93.40;;;;;;5113936;28;19908;-45
2022/10/20 12:54:53;;;;;;;;;;;19.90;93.40;;;;;;5111806;28;20374;-47
2022/10/20 12:57:22;;;;;;;;;;;19.90;93.40;;;;;;5117148;28;19912;-43
2022/10/20 12:59:48;;;;;;;;;;;19.90;93.40;;;;;;5115367;28;19924;-48
2022/10/20 13:02:16;;;;;;;;;;;19.90;93.30;;;;;;5115682;27;20243;-45
2022/10/20 13:05:00;;;;;;;;;;;19.90;93.40;;;;;;5117723;28;19957;-44
2022/10/20 13:07:45;;;;;;;;;;;19.90;93.30;;;;;;5095567;28;19920;-46
2022/10/20 13:10:25;;;;;;;;;;;19.90;93.30;;;;;;5098616;28;19968;-45
2022/10/20 13:13:00;;;;;;;;;;;19.90;93.30;;;;;;5114282;28;19919;-41
2022/10/20 13:15:34;;;;;;;;;;;19.90;93.40;;;;;;5131633;27;20281;-41
2022/10/20 13:17:59;;;;;;;;;;;19.90;93.40;;;;;;5138263;27;20289;-43
2022/10/20 13:20:39;;;;;;;;;;;19.90;93.40;;;;;;5122281;27;19908;-40
2022/10/20 13:23:07;;;;;;;;;;;19.90;93.60;;;;;;5117845;28;19998;-41
2022/10/20 13:25:39;;;;;;;;;;;19.90;93.40;;;;;;5126368;27;19930;-45
2022/10/20 13:28:05;;;;;;;;;;;19.90;93.50;;;;;;5138669;27;19956;-41
2022/10/20 13:30:32;;;;;;;;;;;19.90;93.50;;;;;;5138098;27;19918;-42
2022/10/20 13:33:15;;;;;;;;;;;19.90;93.50;;;;;;5118760;27;19907;-42
2022/10/20 13:35:46;;;;;;;;;;;19.90;93.50;;;;;;5121084;27;19907;-40
2022/10/20 13:38:14;;;;;;;;;;;19.90;93.50;;;;;;5138055;27;19980;-40
2022/10/20 13:40:39;;;;;;;;;;;19.90;93.50;;;;;;5135269;27;19989;-40
2022/10/20 13:43:08;;;;;;;;;;;19.90;93.50;;;;;;5137832;27;19911;-41
2022/10/20 13:45:48;;;;;;;;;;;19.90;93.80;;;;;;5137477;27;19994;-40
2022/10/20 13:48:21;;;;;;;;;;;19.90;93.60;;;;;;5137450;27;20418;-40
2022/10/20 13:50:58;;;;;;;;;;;19.90;93.60;;;;;;5122748;27;19915;-40
2022/10/20 13:53:52;;;;;;;;;;;19.90;93.60;;;;;;5124871;27;19930;-40
2022/10/20 13:56:20;;;;;;;;;;;19.90;93.60;;;;;;5102212;28;20006;-40
2022/10/20 13:58:58;;;;;;;;;;;19.90;93.60;;;;;;5116729;28;19922;-41
2022/10/20 14:01:23;;;;;;;;;;;19.90;93.60;;;;;;5116973;28;20002;-39
2022/10/20 14:03:49;;;;;;;;;;;19.90;93.60;;;;;;5098702;28;20003;-40
2022/10/20 14:06:27;;;;;;;;;;;19.90;93.60;;;;;;5115121;28;20003;-40
2022/10/20 14:08:53;;;;;;;;;;;19.90;93.60;;;;;;5098418;28;19919;-40
2022/10/20 14:11:18;;;;;;;;;;;19.90;93.60;;;;;;5135540;27;20269;-39
2022/10/20 14:13:44;;;;;;;;;;;19.90;93.60;;;;;;5135631;27;19908;-40
2022/10/20 14:16:16;;;;;;;;;;;19.90;93.60;;;;;;5121124;27;20002;-39
2022/10/20 14:18:42;;;;;;;;;;;20.00;93.60;;;;;;5137196;27;19916;-40
2022/10/20 14:21:17;;;;;;;;;;;19.90;93.60;;;;;;5136625;27;20002;-40
2022/10/20 14:23:44;;;;;;;;;;;20.00;93.60;;;;;;5136729;27;19946;-39